createdAt,value
2023-05-26T00:02:12.895Z,959.55
2023-05-26T00:07:14.302Z,959.63
2023-05-26T00:12:15.622Z,959.6
2023-05-26T00:17:17.816Z,959.58
2023-05-26T00:22:19.739Z,959.53
2023-05-26T00:27:21.807Z,959.48
2023-05-26T00:32:23.200Z,959.49
2023-05-26T00:37:24.967Z,959.54
2023-05-26T00:42:26.894Z,959.56
2023-05-26T00:47:28.854Z,959.57
2023-05-26T00:52:30.659Z,959.57
2023-05-26T00:57:32.551Z,959.51
2023-05-26T01:02:34.664Z,959.55
2023-05-26T01:07:35.932Z,959.54
2023-05-26T01:12:37.257Z,959.51
2023-05-26T01:17:38.586Z,959.45
2023-05-26T01:22:39.960Z,959.51
2023-05-26T01:27:41.391Z,959.49
2023-05-26T01:32:43.003Z,959.49
2023-05-26T01:37:44.963Z,959.48
2023-05-26T01:42:46.598Z,959.5
2023-05-26T01:47:48.405Z,959.51
2023-05-26T01:52:50.511Z,959.49
2023-05-26T01:57:51.991Z,959.48
2023-05-26T02:02:54.106Z,959.49
2023-05-26T02:33:04.560Z,959.4
2023-05-26T02:48:10.330Z,959.34
2023-05-26T03:38:32.978Z,959.68
2023-05-26T04:13:45.233Z,959.83
2023-05-26T04:48:55.718Z,960.01
2023-05-26T04:53:56.963Z,960.03
2023-05-26T04:58:58.999Z,960.07
2023-05-26T05:04:00.429Z,960.14
2023-05-26T05:09:01.625Z,960.16
2023-05-26T05:14:03.533Z,960.18
2023-05-26T05:19:05.575Z,960.2
2023-05-26T05:24:06.821Z,960.2
2023-05-26T05:29:08.378Z,960.25
2023-05-26T05:34:09.866Z,960.23
2023-05-26T05:39:11.908Z,960.26
2023-05-26T05:44:13.660Z,960.24
2023-05-26T05:49:15.041Z,960.28
2023-05-26T05:54:16.223Z,960.23
2023-05-26T05:59:17.827Z,960.19
2023-05-26T06:04:19.217Z,960.25
2023-05-26T06:09:20.381Z,960.25
2023-05-26T06:14:22.361Z,960.22
2023-05-26T06:19:24.441Z,960.23
2023-05-26T06:24:25.824Z,960.23
2023-05-26T06:29:27.966Z,960.31
2023-05-26T06:34:29.528Z,960.38
2023-05-26T06:39:31.092Z,960.38
2023-05-26T06:44:32.303Z,960.35
2023-05-26T06:49:34.352Z,960.39
2023-05-26T06:54:36.271Z,960.45
2023-05-26T06:59:38.062Z,960.42
2023-05-26T07:04:39.748Z,960.42
2023-05-26T07:09:41.766Z,960.44
2023-05-26T07:14:43.355Z,960.45
2023-05-26T07:19:45.167Z,960.43
2023-05-26T07:24:46.527Z,960.44
2023-05-26T07:29:48.560Z,960.46
2023-05-26T07:34:49.930Z,960.45
2023-05-26T07:39:51.309Z,960.41
2023-05-26T07:44:53.080Z,960.43
2023-05-26T07:49:54.620Z,960.48
2023-05-26T07:54:57.459Z,960.5
2023-05-26T07:59:57.646Z,960.43
2023-05-26T08:04:59.441Z,960.42
2023-05-26T08:10:00.621Z,960.43
2023-05-26T08:15:02.436Z,960.41
2023-05-26T08:20:03.830Z,960.49
2023-05-26T08:25:05.499Z,960.43
2023-05-26T08:30:07.615Z,960.35
2023-05-26T08:35:09.768Z,960.36
2023-05-26T08:40:11.266Z,960.33
2023-05-26T08:45:13.321Z,960.35
2023-05-26T08:50:15.400Z,960.33
2023-05-26T08:55:17.013Z,960.41
2023-05-26T09:00:20.933Z,960.42
2023-05-26T09:05:19.988Z,960.36
2023-05-26T09:10:21.970Z,960.36
2023-05-26T09:15:23.766Z,960.36
2023-05-26T09:20:25.003Z,960.39
2023-05-26T09:25:26.542Z,960.38
2023-05-26T09:30:28.641Z,960.39
2023-05-26T09:35:30.396Z,960.35
2023-05-26T09:40:32.239Z,960.31
2023-05-26T09:45:34.380Z,960.34
2023-05-26T09:50:36.173Z,960.34
2023-05-26T09:55:38.276Z,960.32
2023-05-26T10:00:44.981Z,960.37
2023-05-26T10:05:42.138Z,960.33
2023-05-26T10:10:44.149Z,960.33
2023-05-26T10:15:45.562Z,960.24
2023-05-26T10:20:46.879Z,960.23
2023-05-26T10:25:48.285Z,960.3
2023-05-26T10:30:50.141Z,960.3
2023-05-26T10:35:51.927Z,960.3
2023-05-26T10:40:53.099Z,960.22
2023-05-26T10:45:55.067Z,960.18
2023-05-26T10:50:56.903Z,960.17
2023-05-26T10:55:58.347Z,960.1
2023-05-26T11:01:00.539Z,960.16
2023-05-26T11:06:01.802Z,960.12
2023-05-26T11:11:03.591Z,960.1
2023-05-26T11:16:05.679Z,960.06
2023-05-26T11:21:07.625Z,960.05
2023-05-26T11:26:08.831Z,960.07
2023-05-26T11:31:10.608Z,960
2023-05-26T11:36:12.191Z,960
2023-05-26T11:41:13.604Z,960.05
2023-05-26T11:46:15.462Z,960.06
2023-05-26T11:51:16.684Z,960
2023-05-26T11:56:18.149Z,960.06
2023-05-26T12:01:20.168Z,960.01
2023-05-26T12:11:24.311Z,960.02
2023-05-26T12:16:25.974Z,959.97
2023-05-26T12:21:27.646Z,959.99
2023-05-26T12:26:29.567Z,959.93
2023-05-26T12:31:31.668Z,959.96
2023-05-26T12:36:32.901Z,959.95
2023-05-26T12:41:34.111Z,960
2023-05-26T12:46:35.437Z,959.96
2023-05-26T12:51:37.116Z,959.89
2023-05-26T12:56:39.124Z,959.81
2023-05-26T13:01:41.005Z,959.9
2023-05-26T13:06:43.077Z,959.92
2023-05-26T13:11:44.345Z,959.84
2023-05-26T13:16:46.347Z,959.85
2023-05-26T13:21:47.545Z,959.87
2023-05-26T13:26:48.766Z,959.85
2023-05-26T13:31:50.504Z,959.81
2023-05-26T13:36:51.779Z,959.84
2023-05-26T13:41:53.299Z,959.83
2023-05-26T13:46:54.697Z,959.82
2023-05-26T13:51:56.174Z,959.89
2023-05-26T13:56:57.529Z,959.85
2023-05-26T14:01:59.278Z,959.8
2023-05-26T14:07:14.389Z,959.82
2023-05-26T14:12:02.689Z,959.81
2023-05-26T14:17:04.846Z,959.84
2023-05-26T14:22:10.397Z,959.88
2023-05-26T14:27:07.851Z,959.9
2023-05-26T14:32:09.502Z,959.89
2023-05-26T14:37:11.228Z,959.78
2023-05-26T14:42:12.923Z,959.74
2023-05-26T14:47:14.396Z,959.84
2023-05-26T14:52:15.666Z,959.71
2023-05-26T14:57:17.410Z,959.77
2023-05-26T15:02:18.937Z,959.76
2023-05-26T15:07:20.802Z,959.7
2023-05-26T15:12:22.870Z,959.73
2023-05-26T15:17:24.380Z,959.69
2023-05-26T15:22:26.464Z,959.68
2023-05-26T15:27:28.238Z,959.69
2023-05-26T15:32:29.755Z,959.7
2023-05-26T15:37:35.710Z,959.71
2023-05-26T15:42:33.374Z,959.68
2023-05-26T15:47:34.797Z,959.65
2023-05-26T15:52:36.754Z,959.63
2023-05-26T15:57:38.233Z,959.59
2023-05-26T16:02:39.503Z,959.59
2023-05-26T16:07:41.406Z,959.5
2023-05-26T16:12:42.769Z,959.54
2023-05-26T16:17:52.040Z,959.55
2023-05-26T16:22:45.800Z,959.51
2023-05-26T16:27:47.502Z,959.47
2023-05-26T16:32:49.400Z,959.49
2023-05-26T16:37:51.099Z,959.49
2023-05-26T16:42:53.146Z,959.46
2023-05-26T17:28:07.632Z,959.35
2023-05-26T18:38:33.348Z,959.85
2023-05-26T19:23:48.687Z,960.13
2023-05-26T19:38:53.891Z,960.23
2023-05-26T19:43:55.140Z,960.3
2023-05-26T19:48:57.054Z,960.31
2023-05-26T19:53:58.476Z,960.37
2023-05-26T19:59:00.613Z,960.36
2023-05-26T20:04:02.122Z,960.38
2023-05-26T20:09:03.857Z,960.39
2023-05-26T20:14:05.866Z,960.36
2023-05-26T20:19:13.550Z,960.41
2023-05-26T20:24:14.919Z,960.4
2023-05-26T20:29:16.212Z,960.45
2023-05-26T20:34:18.162Z,960.47
2023-05-26T20:39:19.495Z,960.44
2023-05-26T20:44:21.484Z,960.48
2023-05-26T20:49:22.772Z,960.46
2023-05-26T20:54:24.631Z,960.43
2023-05-26T20:59:26.072Z,960.49
2023-05-26T21:04:27.327Z,960.56
2023-05-26T21:09:29.497Z,960.6
2023-05-26T21:14:31.597Z,960.64
2023-05-26T21:19:33.694Z,960.63
2023-05-26T21:24:35.610Z,960.65
2023-05-26T21:29:37.698Z,960.68
2023-05-26T21:34:39.290Z,960.66
2023-05-26T21:39:41.138Z,960.69
2023-05-26T21:44:42.394Z,960.7
2023-05-26T21:49:44.476Z,960.75
2023-05-26T21:54:45.816Z,960.71
2023-05-26T21:59:47.260Z,960.72
2023-05-26T22:04:48.800Z,960.69
2023-05-26T22:09:50.471Z,960.69
2023-05-26T22:14:52.070Z,960.74
2023-05-26T22:19:53.930Z,960.69
2023-05-26T22:24:55.522Z,960.77
2023-05-26T22:29:56.856Z,960.76
2023-05-26T22:34:58.788Z,960.76
2023-05-26T22:40:00.498Z,960.8
2023-05-26T22:45:02.280Z,960.74
2023-05-26T22:50:04.434Z,960.74
2023-05-26T22:55:06.452Z,960.79
2023-05-26T23:00:08.211Z,960.81
2023-05-26T23:05:10.395Z,960.84
2023-05-26T23:10:11.906Z,960.85
2023-05-26T23:15:13.916Z,960.85
2023-05-26T23:20:15.217Z,960.83
2023-05-26T23:25:16.382Z,960.92
2023-05-26T23:30:18.101Z,960.87
2023-05-26T23:35:20.123Z,960.91
2023-05-26T23:40:21.407Z,960.81
2023-05-26T23:45:23.238Z,960.83
2023-05-26T23:50:24.524Z,960.81
2023-05-26T23:55:25.713Z,960.83
